Skip Navigation Links Skip Navigation Links

Current Weather

Casa Grande Muni, Casa Grande, Ariz.

For information only: do not use for flight planning or navigation.
Latest weather
Observation time Monday, October 18, 2021 12:56 PM MST
Local time Monday, October 18, 2021 1:25 PM MST
Flight conditions Visual Meteorological Conditions
Winds
Wind direction South-Southwest (210°)
Wind speed 24 mph
Wind gusting to 29 mph
Visibility 10 mi.
Sky condition
Ceiling unlimited
Cloud layer scattered clouds 6,000 ft.
Temperature 80°F
Dewpoint 51°F
Altimeter 29.86 in.Hg
Derived measurements
Relative humidity 37%
Heat index 80°F
Density altitude 3066 ft.
Sea-level pressure 29.82 in.Hg
Remarks
Fully automated report.
Automated weather observing station with precipitation discriminator.
METAR KCGZ 181956Z AUTO 21021G25KT 10SM SCT060 27/11 A2986 RMK AO2 SLP099 T02670106

Settings

Location code

InnerDrive.Weather 4.0.6770.0 Release CLR 4.0.30319.42000
Copyright ©2018 Inner Drive Technology. All rights reserved. Portions Copyright ©1986-2018 David Braverman.

Find weather

Site navigation


Skip Navigation Links

Place info

Page info

PayPal - The safer, easier way to pay online!

Return home.

Copyright ©2021 Inner Drive Technology. Purveyors of fine, hand-crafted computer software. Page printed 2021-10-18T20:25:23 UTC.